Time;durP1;ratioP1;P1;durP2;ratioP2;P2;SDS_P1;SDS_P2;PMS_P1;PMS_P2;Temp;Humidity;BMP_temperature;BMP_pressure;BME280_temperature;BME280_humidity;BME280_pressure;Samples;Min_cycle;Max_cycle;Signal;HPM_P1;HPM_P2
2023/04/27 03:01:38;;;;;;;4.47;2.08;;;11.50;85.20;;;;;;5695871;23;93895;-73
2023/04/27 03:04:04;;;;;;;8.55;2.05;;;11.60;85.00;;;;;;4877931;28;93018;-73
2023/04/27 03:06:29;;;;;;;5.93;1.95;;;11.60;83.70;;;;;;4897546;28;92962;-72
2023/04/27 03:08:55;;;;;;;9.88;2.17;;;11.60;85.20;;;;;;4898755;28;93012;-69
2023/04/27 03:11:21;;;;;;;5.18;2.13;;;11.60;86.00;;;;;;4898470;28;92789;-69
2023/04/27 03:13:46;;;;;;;3.38;1.42;;;11.70;85.60;;;;;;4897447;28;92352;-73
2023/04/27 03:16:12;;;;;;;6.00;2.03;;;11.70;84.40;;;;;;4899465;28;92787;-71
2023/04/27 03:18:38;;;;;;;5.95;2.05;;;11.70;84.80;;;;;;4897851;28;93846;-71
2023/04/27 03:21:08;;;;;;;6.05;2.00;;;11.70;84.60;;;;;;4897982;28;93930;-71
2023/04/27 03:23:34;;;;;;;5.40;2.30;;;11.80;84.90;;;;;;4898297;28;92769;-72
2023/04/27 03:26:04;;;;;;;7.50;2.00;;;11.80;85.70;;;;;;4898359;28;92737;-71
2023/04/27 03:28:30;;;;;;;4.95;1.90;;;11.80;85.80;;;;;;4917422;28;92654;-71
2023/04/27 03:30:55;;;;;;;4.43;1.73;;;11.80;86.30;;;;;;4917660;28;92850;-72
2023/04/27 03:33:21;;;;;;;6.00;1.83;;;11.80;86.30;;;;;;4900156;28;92516;-72
2023/04/27 03:35:57;;;;;;;3.88;1.60;;;11.80;85.90;;;;;;4903950;28;91782;-69
2023/04/27 03:38:24;;;;;;;7.10;2.40;;;11.80;85.50;;;;;;4892846;28;94236;-69
2023/04/27 03:40:50;;;;;;;5.20;1.50;;;11.80;84.80;;;;;;4890769;28;92884;-70
2023/04/27 03:43:16;;;;;;;4.30;1.40;;;11.80;83.30;;;;;;4892458;28;93890;-69
2023/04/27 03:45:41;;;;;;;7.30;1.90;;;11.80;83.50;;;;;;4888910;28;94167;-71
2023/04/27 03:48:07;;;;;;;5.35;1.90;;;11.90;84.20;;;;;;4897663;28;92822;-70
2023/04/27 03:50:32;;;;;;;5.75;1.55;;;11.80;84.10;;;;;;4893824;28;92930;-71
2023/04/27 03:52:58;;;;;;;5.65;1.60;;;11.80;84.30;;;;;;4893716;28;93819;-70
2023/04/27 03:55:24;;;;;;;3.40;1.40;;;11.80;84.20;;;;;;4896451;28;92403;-70
2023/04/27 03:57:50;;;;;;;4.72;1.60;;;11.80;84.90;;;;;;4896671;28;93777;-71
2023/04/27 04:00:17;;;;;;;5.82;1.80;;;11.80;84.80;;;;;;4897219;28;92262;-70
2023/04/27 04:02:43;;;;;;;7.55;1.95;;;11.80;86.20;;;;;;4877729;28;92507;-70
2023/04/27 04:05:09;;;;;;;8.27;2.05;;;11.70;87.40;;;;;;4875199;28;92940;-69
2023/04/27 04:07:35;;;;;;;8.73;2.10;;;11.60;87.80;;;;;;4870848;28;95660;-70
2023/04/27 04:10:01;;;;;;;6.00;2.10;;;11.50;88.50;;;;;;4872238;28;93121;-70
2023/04/27 04:12:27;;;;;;;6.95;2.20;;;11.40;89.20;;;;;;4875538;28;92182;-70
2023/04/27 04:14:52;;;;;;;5.65;2.38;;;11.40;89.50;;;;;;4879367;28;92200;-71
2023/04/27 04:17:18;;;;;;;4.20;2.25;;;11.40;90.00;;;;;;4878000;28;93681;-70
2023/04/27 04:19:44;;;;;;;7.55;2.65;;;11.40;90.30;;;;;;4877707;28;92430;-71
2023/04/27 04:22:10;;;;;;;10.23;3.13;;;11.40;90.30;;;;;;4879730;28;92485;-70
2023/04/27 04:24:36;;;;;;;6.05;2.75;;;11.30;90.60;;;;;;4879314;28;91741;-70
2023/04/27 04:27:02;;;;;;;6.40;3.60;;;11.30;90.80;;;;;;4879892;28;93181;-70
2023/04/27 04:29:28;;;;;;;6.03;2.88;;;11.20;91.00;;;;;;4876245;28;93928;-70
2023/04/27 04:31:56;;;;;;;7.97;2.65;;;11.30;91.20;;;;;;4877945;28;93283;-71
2023/04/27 04:34:22;;;;;;;6.65;2.58;;;11.20;91.40;;;;;;4880998;28;92445;-70
2023/04/27 04:36:50;;;;;;;8.40;3.22;;;11.10;91.60;;;;;;4876884;28;92922;-69
2023/04/27 04:39:19;;;;;;;7.35;2.83;;;11.10;92.00;;;;;;4878231;28;93239;-70
2023/04/27 04:41:45;;;;;;;6.35;2.47;;;11.10;92.10;;;;;;4875933;28;92433;-69
2023/04/27 04:44:11;;;;;;;6.80;2.20;;;11.10;92.20;;;;;;4873971;28;92367;-69
2023/04/27 04:46:37;;;;;;;7.07;2.20;;;11.10;91.80;;;;;;4866626;28;94098;-71
2023/04/27 04:49:03;;;;;;;4.95;1.80;;;11.10;91.40;;;;;;4881296;28;92892;-69
2023/04/27 04:51:29;;;;;;;4.80;1.80;;;11.20;90.70;;;;;;4868011;28;93832;-71
2023/04/27 04:53:54;;;;;;;4.07;1.55;;;11.30;90.50;;;;;;4875013;28;92532;-69
2023/04/27 04:56:20;;;;;;;3.15;1.10;;;11.40;90.20;;;;;;4877010;28;94354;-69
2023/04/27 04:58:46;;;;;;;5.85;1.30;;;11.50;86.90;;;;;;4855074;28;96926;-70
2023/04/27 05:01:11;;;;;;;5.15;1.20;;;11.60;86.30;;;;;;4877112;28;92026;-71
2023/04/27 05:03:37;;;;;;;4.40;1.20;;;11.70;85.30;;;;;;4880417;28;92558;-69
2023/04/27 05:06:03;;;;;;;4.90;1.35;;;11.80;84.60;;;;;;4880648;28;92927;-69
2023/04/27 05:08:28;;;;;;;5.90;1.30;;;11.90;84.20;;;;;;4879599;28;95057;-70
2023/04/27 05:10:54;;;;;;;3.63;1.00;;;12.00;83.20;;;;;;4876433;28;94511;-70
2023/04/27 05:13:20;;;;;;;4.05;1.05;;;12.00;82.30;;;;;;4878311;28;91962;-71
2023/04/27 05:15:46;;;;;;;4.93;1.50;;;12.00;82.20;;;;;;4879607;28;93596;-69
2023/04/27 05:18:12;;;;;;;4.70;1.45;;;12.00;81.90;;;;;;4879596;28;94406;-70
2023/04/27 05:20:38;;;;;;;5.80;1.65;;;12.00;82.20;;;;;;4884118;28;93391;-70
2023/04/27 05:23:03;;;;;;;4.78;1.20;;;12.00;83.00;;;;;;4876869;28;92541;-71
2023/04/27 05:25:30;;;;;;;5.60;1.55;;;12.00;83.60;;;;;;4879926;28;93154;-70
2023/04/27 05:27:56;;;;;;;6.25;1.80;;;12.10;84.00;;;;;;4877499;28;92404;-72
2023/04/27 05:30:22;;;;;;;3.80;1.20;;;12.10;83.20;;;;;;4869561;28;92763;-70
2023/04/27 05:32:47;;;;;;;6.05;1.30;;;12.20;82.40;;;;;;4877544;28;92600;-70
2023/04/27 05:35:13;;;;;;;4.15;1.10;;;12.20;81.50;;;;;;4879681;28;93724;-70
2023/04/27 05:37:39;;;;;;;3.92;1.20;;;12.30;80.50;;;;;;4871345;28;93191;-70
2023/04/27 05:40:08;;;;;;;4.15;0.95;;;12.30;80.30;;;;;;4882317;28;92438;-70
2023/04/27 05:42:33;;;;;;;6.85;1.20;;;12.40;79.60;;;;;;4875980;28;93850;-69
2023/04/27 05:44:59;;;;;;;2.65;0.90;;;12.50;79.00;;;;;;4873658;28;94125;-70
2023/04/27 05:47:25;;;;;;;5.38;0.90;;;12.50;79.30;;;;;;4869142;28;94462;-70
2023/04/27 05:49:51;;;;;;;4.95;0.70;;;12.60;77.80;;;;;;4865524;28;94130;-70
2023/04/27 05:52:18;;;;;;;3.50;0.60;;;12.50;77.90;;;;;;4870778;28;93706;-70
2023/04/27 05:54:48;;;;;;;5.30;0.80;;;12.60;78.90;;;;;;4865693;28;93531;-71
2023/04/27 05:57:14;;;;;;;5.50;0.60;;;12.60;78.30;;;;;;4883063;28;92570;-69
2023/04/27 05:59:40;;;;;;;4.05;0.98;;;12.70;78.30;;;;;;4867920;28;93223;-69
2023/04/27 06:02:07;;;;;;;2.28;0.70;;;12.70;78.20;;;;;;4884689;28;91942;-70
2023/04/27 06:04:32;;;;;;;3.95;0.75;;;12.70;78.00;;;;;;4874752;28;92815;-70
2023/04/27 06:07:06;;;;;;;3.70;0.70;;;12.80;78.00;;;;;;4888312;28;93339;-70
2023/04/27 06:09:31;;;;;;;4.82;0.68;;;12.80;77.70;;;;;;4883452;28;93361;-71
2023/04/27 06:11:58;;;;;;;3.72;0.60;;;12.90;77.20;;;;;;4868808;28;93800;-70
2023/04/27 06:14:24;;;;;;;3.58;0.50;;;12.90;77.10;;;;;;4876002;28;93295;-70
2023/04/27 06:16:50;;;;;;;2.60;0.60;;;12.90;77.30;;;;;;4878070;28;92482;-70
2023/04/27 06:19:15;;;;;;;2.72;0.57;;;13.00;76.70;;;;;;4880295;28;92610;-69
2023/04/27 06:21:41;;;;;;;5.57;0.70;;;13.00;75.90;;;;;;4877658;28;92676;-71
2023/04/27 06:24:07;;;;;;;5.18;0.80;;;13.10;76.10;;;;;;4884340;28;93398;-69
2023/04/27 06:26:32;;;;;;;3.17;0.63;;;13.20;76.20;;;;;;4884857;28;92337;-71
2023/04/27 06:28:58;;;;;;;3.58;0.82;;;13.30;75.40;;;;;;4883412;28;92559;-70
2023/04/27 06:31:25;;;;;;;3.33;0.88;;;13.30;76.50;;;;;;4876423;28;93689;-71
2023/04/27 06:33:51;;;;;;;2.55;0.70;;;13.40;75.80;;;;;;4876748;28;96076;-71
2023/04/27 06:36:18;;;;;;;2.92;0.75;;;13.40;74.90;;;;;;4877695;28;96885;-73
2023/04/27 06:38:44;;;;;;;4.45;0.80;;;13.40;75.10;;;;;;4864994;28;92693;-72
2023/04/27 06:41:10;;;;;;;4.68;0.70;;;13.50;75.70;;;;;;4877218;28;92431;-72
2023/04/27 06:43:35;;;;;;;2.22;0.50;;;13.60;75.00;;;;;;4880024;28;92966;-72
2023/04/27 06:46:01;;;;;;;3.80;0.65;;;13.70;75.40;;;;;;4870334;28;93110;-71
2023/04/27 06:48:27;;;;;;;5.35;0.95;;;13.80;73.80;;;;;;4866709;28;92503;-70
2023/04/27 06:50:53;;;;;;;5.53;1.10;;;13.80;73.30;;;;;;4879931;28;91913;-71
2023/04/27 06:53:18;;;;;;;6.18;0.70;;;13.80;72.00;;;;;;4887696;28;92775;-70
2023/04/27 06:55:44;;;;;;;9.00;1.23;;;13.80;73.20;;;;;;4875569;28;92858;-72
2023/04/27 06:58:10;;;;;;;4.10;1.00;;;13.90;74.10;;;;;;4875926;28;93251;-70
2023/04/27 07:00:36;;;;;;;5.13;1.25;;;14.00;74.10;;;;;;4879767;28;92126;-70
2023/04/27 07:03:01;;;;;;;4.30;1.08;;;14.10;73.20;;;;;;4884276;28;93248;-71
2023/04/27 07:05:27;;;;;;;4.47;1.02;;;14.30;73.80;;;;;;4884219;28;93108;-72
2023/04/27 07:07:53;;;;;;;7.90;1.30;;;14.60;74.10;;;;;;4882520;28;92511;-71
2023/04/27 07:10:19;;;;;;;4.72;1.13;;;15.00;72.70;;;;;;4882214;28;92546;-71
2023/04/27 07:12:45;;;;;;;5.00;1.00;;;15.10;71.50;;;;;;4881630;28;93298;-71
2023/04/27 07:15:10;;;;;;;11.57;1.30;;;15.20;70.70;;;;;;4879419;28;92283;-71
2023/04/27 07:17:36;;;;;;;7.45;1.10;;;15.20;71.50;;;;;;4879292;28;92794;-72
2023/04/27 07:20:04;;;;;;;3.78;1.13;;;15.10;70.10;;;;;;4879509;28;92536;-71
2023/04/27 07:22:29;;;;;;;4.82;1.10;;;15.00;70.90;;;;;;4878582;28;94124;-72
2023/04/27 07:24:55;;;;;;;5.65;1.10;;;15.00;71.70;;;;;;4878559;28;93244;-71
2023/04/27 07:27:25;;;;;;;6.28;1.30;;;15.00;72.40;;;;;;4872325;28;92793;-71
2023/04/27 07:29:51;;;;;;;4.80;1.40;;;14.90;72.40;;;;;;4874860;28;92482;-70
2023/04/27 07:32:17;;;;;;;10.77;1.73;;;14.80;73.30;;;;;;4879244;28;93413;-71
2023/04/27 07:34:42;;;;;;;5.07;1.35;;;15.00;73.30;;;;;;4878902;28;92311;-71
2023/04/27 07:37:08;;;;;;;3.72;1.30;;;15.10;74.10;;;;;;4873339;28;92501;-71
2023/04/27 07:39:34;;;;;;;6.60;1.40;;;15.20;73.10;;;;;;4880069;28;91677;-71
2023/04/27 07:42:02;;;;;;;3.55;1.35;;;15.40;73.00;;;;;;4878523;28;93691;-71
2023/04/27 07:44:27;;;;;;;4.90;1.23;;;15.90;72.00;;;;;;4878995;28;92974;-71
2023/04/27 07:46:53;;;;;;;4.03;1.23;;;16.30;69.70;;;;;;4878414;28;93445;-71
2023/04/27 07:49:19;;;;;;;5.53;1.10;;;16.50;70.00;;;;;;4878778;28;92225;-71
2023/04/27 07:51:45;;;;;;;3.42;1.30;;;16.50;68.20;;;;;;4878659;28;92733;-71
2023/04/27 07:54:11;;;;;;;4.47;1.20;;;16.40;68.70;;;;;;4877859;28;92757;-71
2023/04/27 07:56:40;;;;;;;5.32;0.80;;;16.30;67.60;;;;;;4879071;28;92421;-71
2023/04/27 07:59:06;;;;;;;6.63;1.05;;;16.20;67.80;;;;;;4878848;28;92587;-71
2023/04/27 08:01:32;;;;;;;7.47;1.23;;;16.10;69.50;;;;;;4877477;28;92868;-72
2023/04/27 08:03:57;;;;;;;4.40;1.02;;;16.00;68.40;;;;;;4879126;28;92873;-71
2023/04/27 08:06:23;;;;;;;7.97;1.08;;;15.80;70.00;;;;;;4876785;28;92373;-71
2023/04/27 08:08:49;;;;;;;4.22;1.10;;;15.60;69.40;;;;;;4879018;28;92616;-71
2023/04/27 08:11:14;;;;;;;3.05;0.73;;;15.60;69.50;;;;;;4873571;28;94608;-71
2023/04/27 08:13:40;;;;;;;5.07;0.90;;;15.40;69.50;;;;;;4878367;28;93127;-71
2023/04/27 08:16:06;;;;;;;4.00;1.00;;;15.30;69.40;;;;;;4878660;28;92628;-71
2023/04/27 08:18:31;;;;;;;6.18;1.08;;;15.20;70.70;;;;;;4878545;28;92680;-71
2023/04/27 08:20:57;;;;;;;10.68;1.33;;;15.20;71.00;;;;;;4878401;28;92605;-71
2023/04/27 08:23:27;;;;;;;5.43;1.27;;;15.20;71.10;;;;;;4878160;28;92751;-71
2023/04/27 08:25:52;;;;;;;9.88;1.30;;;15.30;72.90;;;;;;4877996;28;92453;-71
2023/04/27 08:28:18;;;;;;;4.60;1.30;;;15.80;71.10;;;;;;4870405;28;92963;-71
2023/04/27 08:30:44;;;;;;;8.45;1.60;;;16.10;71.40;;;;;;4878289;28;93878;-71
2023/04/27 08:33:09;;;;;;;4.80;1.27;;;16.20;69.30;;;;;;4878111;28;93552;-71
2023/04/27 08:35:35;;;;;;;7.80;1.73;;;16.20;69.40;;;;;;4878308;28;93316;-71
2023/04/27 08:38:01;;;;;;;7.28;1.40;;;16.00;69.80;;;;;;4869739;28;92335;-71
2023/04/27 08:40:27;;;;;;;5.05;1.55;;;15.90;70.40;;;;;;4877866;28;94582;-71
2023/04/27 08:42:57;;;;;;;5.28;1.75;;;15.60;71.40;;;;;;4878417;28;92879;-71
2023/04/27 08:45:24;;;;;;;4.18;1.35;;;15.60;72.70;;;;;;4875959;28;93108;-71
2023/04/27 08:47:50;;;;;;;4.93;1.60;;;15.80;72.00;;;;;;4878268;28;92114;-71
2023/04/27 08:50:17;;;;;;;8.95;2.17;;;16.20;72.40;;;;;;4877298;28;92636;-71
2023/04/27 08:52:46;;;;;;;4.53;1.80;;;16.60;71.40;;;;;;4878449;28;92178;-72
2023/04/27 08:55:13;;;;;;;7.18;1.90;;;17.30;69.70;;;;;;4878935;28;92543;-71
2023/04/27 08:57:39;;;;;;;7.30;1.58;;;18.40;67.10;;;;;;4877650;28;92673;-72
2023/04/27 09:00:12;;;;;;;6.03;1.90;;;19.60;62.70;;;;;;4876752;28;95535;-72
2023/04/27 09:02:45;;;;;;;6.35;2.05;;;20.30;60.20;;;;;;4872162;28;94816;-73
2023/04/27 09:05:17;;;;;;;4.90;2.00;;;21.80;59.20;;;;;;4878612;28;92604;-73
2023/04/27 09:08:04;;;;;;;7.95;2.17;;;24.10;53.30;;;;;;4877695;28;92562;-72
2023/04/27 09:10:41;;;;;;;4.22;1.63;;;27.20;49.90;;;;;;4879377;28;93068;-71
2023/04/27 09:13:07;;;;;;;3.72;2.05;;;29.30;46.80;;;;;;4876886;28;92448;-72
2023/04/27 09:15:47;;;;;;;6.15;2.92;;;31.60;41.30;;;;;;4877949;28;92582;-72
2023/04/27 09:18:18;;;;;;;4.28;1.98;;;32.10;39.50;;;;;;4876555;28;91842;-73
2023/04/27 09:20:45;;;;;;;4.70;1.90;;;31.40;38.30;;;;;;4868669;28;92727;-72
2023/04/27 09:23:11;;;;;;;6.15;2.33;;;29.20;39.70;;;;;;4877474;28;92911;-72
2023/04/27 09:25:37;;;;;;;4.05;1.42;;;27.40;42.90;;;;;;4877205;28;93551;-72
2023/04/27 09:28:03;;;;;;;6.47;2.25;;;27.30;42.80;;;;;;4870439;28;94093;-72
2023/04/27 09:30:29;;;;;;;5.13;1.08;;;27.90;43.00;;;;;;4872030;28;92242;-72
2023/04/27 09:32:57;;;;;;;5.63;1.33;;;27.90;43.50;;;;;;4874507;28;92506;-72
2023/04/27 09:35:25;;;;;;;3.85;1.55;;;27.80;42.60;;;;;;4877447;28;92230;-71
2023/04/27 09:37:52;;;;;;;8.13;2.10;;;27.10;44.40;;;;;;4876071;28;92852;-73
2023/04/27 09:40:26;;;;;;;6.28;1.73;;;26.80;44.40;;;;;;4877303;28;93314;-74
2023/04/27 09:43:03;;;;;;;3.75;1.73;;;28.50;43.80;;;;;;4877317;28;92850;-72
2023/04/27 09:45:28;;;;;;;5.05;2.45;;;29.20;40.70;;;;;;4882709;28;92032;-72
2023/04/27 09:47:54;;;;;;;3.38;1.65;;;29.90;41.10;;;;;;4877861;28;92464;-71
2023/04/27 09:50:23;;;;;;;7.85;1.83;;;29.70;39.80;;;;;;4879962;28;94093;-71
2023/04/27 09:52:49;;;;;;;7.00;1.75;;;29.90;40.60;;;;;;4877315;28;93231;-71
2023/04/27 09:55:18;;;;;;;3.88;1.58;;;28.80;41.70;;;;;;4877532;28;92490;-72
2023/04/27 09:57:56;;;;;;;6.00;2.08;;;27.30;43.40;;;;;;4886199;28;92200;-73
2023/04/27 10:00:40;;;;;;;6.35;2.50;;;26.30;45.50;;;;;;4879683;28;93520;-74
2023/04/27 10:03:24;;;;;;;4.55;2.15;;;27.30;46.40;;;;;;4878366;28;92672;-74
2023/04/27 10:06:14;;;;;;;4.07;2.17;;;28.30;42.90;;;;;;4882882;28;92585;-72
2023/04/27 10:08:40;;;;;;;3.78;1.67;;;29.20;43.50;;;;;;4873761;28;91924;-72
2023/04/27 10:11:18;;;;;;;5.05;1.60;;;29.60;41.40;;;;;;4884622;28;93838;-71
2023/04/27 10:13:54;;;;;;;4.90;1.80;;;29.20;42.80;;;;;;4871427;28;92277;-71
2023/04/27 10:16:20;;;;;;;4.65;1.88;;;28.80;44.50;;;;;;4880534;28;93763;-72
2023/04/27 10:18:55;;;;;;;2.63;1.55;;;28.10;44.00;;;;;;4880899;28;92585;-72
2023/04/27 10:21:22;;;;;;;3.55;1.58;;;26.80;42.30;;;;;;4880242;28;93302;-73
2023/04/27 10:23:50;;;;;;;4.63;1.30;;;25.70;43.60;;;;;;4880915;28;92805;-71
2023/04/27 10:26:26;;;;;;;3.63;1.23;;;24.80;45.00;;;;;;4879198;28;92658;-73
2023/04/27 10:29:07;;;;;;;3.22;1.30;;;24.40;45.90;;;;;;4871914;28;94211;-73
2023/04/27 10:31:34;;;;;;;2.72;1.20;;;23.90;48.90;;;;;;4875271;28;93139;-73
2023/04/27 10:34:10;;;;;;;5.90;1.50;;;23.60;48.90;;;;;;4876258;28;92291;-72
2023/04/27 10:36:37;;;;;;;4.53;1.23;;;23.30;49.20;;;;;;4873437;28;92543;-73
2023/04/27 10:39:14;;;;;;;4.93;0.85;;;23.00;50.90;;;;;;4868596;28;92926;-72
2023/04/27 10:41:52;;;;;;;4.65;0.90;;;23.20;50.80;;;;;;4868732;28;94158;-73
2023/04/27 10:44:26;;;;;;;1.40;0.63;;;22.80;47.80;;;;;;4865129;28;94157;-73
2023/04/27 10:46:53;;;;;;;2.28;0.77;;;22.70;49.50;;;;;;4874205;28;92403;-73
2023/04/27 10:49:19;;;;;;;1.73;0.70;;;22.50;51.20;;;;;;4869762;28;92733;-73
2023/04/27 10:51:46;;;;;;;3.88;0.93;;;22.50;49.80;;;;;;4870477;28;93515;-73
2023/04/27 10:54:13;;;;;;;5.40;1.20;;;22.10;49.10;;;;;;4863542;28;93276;-73
2023/04/27 10:56:40;;;;;;;2.78;0.90;;;22.00;50.00;;;;;;4869291;28;92576;-73
2023/04/27 10:59:07;;;;;;;2.20;0.75;;;21.90;49.70;;;;;;4867912;28;91960;-73
2023/04/27 11:01:33;;;;;;;3.08;0.82;;;21.90;50.10;;;;;;4865481;28;93879;-72
2023/04/27 11:04:00;;;;;;;3.05;0.50;;;22.00;50.30;;;;;;4868809;28;93219;-72
2023/04/27 11:06:27;;;;;;;4.78;0.82;;;22.20;53.10;;;;;;4869242;28;93679;-72
2023/04/27 11:08:53;;;;;;;4.53;0.82;;;22.40;50.90;;;;;;4878483;28;93823;-73
2023/04/27 11:11:19;;;;;;;4.10;0.80;;;22.70;50.70;;;;;;4881675;28;94039;-72
2023/04/27 11:13:48;;;;;;;2.35;0.50;;;22.50;50.40;;;;;;4876744;28;93558;-72
2023/04/27 11:16:15;;;;;;;1.40;0.43;;;22.60;47.90;;;;;;4875654;28;92835;-73
2023/04/27 11:18:41;;;;;;;1.85;0.40;;;22.70;47.50;;;;;;4874349;28;93982;-73
2023/04/27 11:21:06;;;;;;;1.38;0.32;;;22.70;48.60;;;;;;4873021;28;93981;-73
2023/04/27 11:23:36;;;;;;;1.45;0.40;;;22.60;47.70;;;;;;4871706;28;93082;-72
2023/04/27 11:26:16;;;;;;;2.47;0.60;;;22.60;48.60;;;;;;4876864;28;92471;-73
2023/04/27 11:28:43;;;;;;;3.13;0.50;;;22.80;51.30;;;;;;4877350;28;92514;-72
2023/04/27 11:31:08;;;;;;;1.88;0.30;;;22.60;49.80;;;;;;4876269;28;93555;-73
2023/04/27 11:33:34;;;;;;;3.00;0.47;;;22.60;49.30;;;;;;4874933;28;93646;-71
2023/04/27 11:36:00;;;;;;;3.78;0.57;;;22.80;49.40;;;;;;4876303;28;92698;-71
2023/04/27 11:38:32;;;;;;;4.15;0.47;;;22.90;50.30;;;;;;4877459;28;92765;-71
2023/04/27 11:41:04;;;;;;;1.48;0.38;;;23.00;50.40;;;;;;4857935;28;96357;-72
2023/04/27 11:43:30;;;;;;;3.08;0.43;;;22.90;47.70;;;;;;4875141;28;92517;-71
2023/04/27 11:45:57;;;;;;;3.30;0.40;;;23.00;49.40;;;;;;4879570;28;92401;-72
2023/04/27 11:48:24;;;;;;;2.03;0.32;;;22.90;48.70;;;;;;4874649;28;91422;-72
2023/04/27 11:50:52;;;;;;;1.13;0.32;;;22.70;49.40;;;;;;4878515;28;93243;-72
2023/04/27 11:53:29;;;;;;;2.50;0.40;;;22.60;46.20;;;;;;4873918;28;93545;-72
2023/04/27 11:55:55;;;;;;;0.73;0.30;;;22.60;51.20;;;;;;4878782;28;93338;-72
2023/04/27 11:58:20;;;;;;;1.35;0.28;;;22.30;46.20;;;;;;4879227;28;92332;-72
2023/04/27 12:00:46;;;;;;;0.80;0.20;;;22.10;47.70;;;;;;4878111;28;93477;-72
2023/04/27 12:03:12;;;;;;;3.80;0.38;;;22.00;46.40;;;;;;4877395;28;92843;-72
2023/04/27 12:05:48;;;;;;;2.47;0.35;;;22.20;47.50;;;;;;4879114;28;92595;-72
2023/04/27 12:08:15;;;;;;;1.48;0.25;;;22.40;49.10;;;;;;4878013;28;92398;-72
2023/04/27 12:10:40;;;;;;;2.30;0.40;;;22.60;50.10;;;;;;4868726;28;92946;-72
2023/04/27 12:13:06;;;;;;;1.67;0.50;;;22.70;49.30;;;;;;4878008;28;92162;-72
2023/04/27 12:15:32;;;;;;;3.35;0.40;;;22.70;49.90;;;;;;4879095;28;92168;-72
2023/04/27 12:17:58;;;;;;;1.30;0.20;;;23.10;49.90;;;;;;4878313;28;92254;-72
2023/04/27 12:20:24;;;;;;;1.30;0.10;;;23.10;48.60;;;;;;4878016;28;93633;-72
2023/04/27 12:22:50;;;;;;;0.30;0.10;;;22.90;47.00;;;;;;4877661;28;94318;-72
2023/04/27 12:25:16;;;;;;;1.02;0.25;;;22.80;46.60;;;;;;4877702;28;92688;-72
2023/04/27 12:27:46;;;;;;;2.35;0.20;;;22.70;49.20;;;;;;4875158;28;92546;-72
2023/04/27 12:30:12;;;;;;;;;;;22.60;49.70;;;;;;4878719;28;92639;-72
2023/04/27 12:32:38;;;;;;;0.77;0.13;;;22.50;48.00;;;;;;4878876;28;92404;-72
2023/04/27 12:35:05;;;;;;;1.52;0.30;;;22.40;49.10;;;;;;4878452;28;92219;-72
2023/04/27 12:37:30;;;;;;;2.08;0.45;;;22.30;49.10;;;;;;4877486;28;91773;-70
2023/04/27 12:39:56;;;;;;;0.57;0.17;;;22.20;49.50;;;;;;4878354;28;92701;-70
2023/04/27 12:42:23;;;;;;;1.75;0.13;;;22.20;48.20;;;;;;4875189;28;92879;-70
2023/04/27 12:44:50;;;;;;;2.70;0.47;;;22.10;49.00;;;;;;4871725;28;93330;-70
2023/04/27 12:47:16;;;;;;;1.60;0.40;;;21.80;46.70;;;;;;4877283;28;92698;-70
2023/04/27 12:49:42;;;;;;;0.82;0.22;;;21.70;49.70;;;;;;4877772;28;92764;-70
2023/04/27 12:52:08;;;;;;;1.52;0.30;;;21.80;50.80;;;;;;4877638;28;94208;-70
2023/04/27 12:54:35;;;;;;;1.52;0.22;;;22.10;50.80;;;;;;4878619;28;92037;-70
2023/04/27 12:57:04;;;;;;;1.23;0.40;;;22.00;47.30;;;;;;4878460;28;92382;-70
2023/04/27 12:59:34;;;;;;;1.23;0.25;;;21.90;50.10;;;;;;4878897;28;93038;-70
2023/04/27 13:02:01;;;;;;;1.45;0.30;;;21.60;51.40;;;;;;4869090;28;93552;-70
2023/04/27 13:04:29;;;;;;;2.92;0.20;;;21.70;51.60;;;;;;4884758;28;92554;-70
2023/04/27 13:07:02;;;;;;;0.95;0.25;;;21.60;47.60;;;;;;4878178;28;92280;-70
2023/04/27 13:09:28;;;;;;;0.70;0.20;;;21.40;47.90;;;;;;4882138;28;94271;-70
2023/04/27 13:11:53;;;;;;;0.90;0.20;;;21.60;51.70;;;;;;4887197;28;94528;-70
2023/04/27 13:14:19;;;;;;;1.88;0.25;;;21.70;50.40;;;;;;4883441;28;93754;-70
2023/04/27 13:16:45;;;;;;;1.13;0.22;;;21.80;50.70;;;;;;4877449;28;93268;-70
2023/04/27 13:19:11;;;;;;;3.10;0.25;;;21.80;50.00;;;;;;4879212;28;92870;-72
2023/04/27 13:21:37;;;;;;;1.67;0.20;;;21.80;50.50;;;;;;4876618;28;92779;-72
2023/04/27 13:24:03;;;;;;;2.05;0.25;;;21.90;48.00;;;;;;4885085;28;92361;-72
2023/04/27 13:26:29;;;;;;;1.92;0.20;;;21.80;46.20;;;;;;4881385;28;91834;-72
2023/04/27 13:28:56;;;;;;;1.10;0.22;;;21.70;47.60;;;;;;4880776;28;93503;-72
2023/04/27 13:31:22;;;;;;;1.30;0.30;;;21.80;46.70;;;;;;4879803;28;92898;-72
2023/04/27 13:33:48;;;;;;;1.50;0.20;;;21.80;49.90;;;;;;4878204;28;93663;-71
2023/04/27 13:36:14;;;;;;;1.88;0.10;;;21.70;49.40;;;;;;4881103;28;94068;-72
2023/04/27 13:38:40;;;;;;;0.82;0.30;;;21.60;49.40;;;;;;4880325;28;93471;-72
2023/04/27 13:41:06;;;;;;;0.75;0.20;;;21.70;51.20;;;;;;4881198;28;92370;-72
2023/04/27 13:43:31;;;;;;;1.73;0.20;;;21.50;47.60;;;;;;4879783;28;93094;-71
2023/04/27 13:46:00;;;;;;;0.80;0.13;;;21.50;48.50;;;;;;4881042;28;92589;-72
2023/04/27 13:48:26;;;;;;;1.58;0.20;;;21.40;49.40;;;;;;4880273;28;93671;-70
2023/04/27 13:50:53;;;;;;;1.63;0.40;;;21.50;48.60;;;;;;4875200;28;93459;-70
2023/04/27 13:53:19;;;;;;;0.80;0.15;;;21.40;47.80;;;;;;4878242;28;92493;-70
2023/04/27 13:55:45;;;;;;;1.25;0.30;;;21.30;49.10;;;;;;4880802;28;92828;-72
2023/04/27 13:58:12;;;;;;;2.63;0.17;;;21.30;50.90;;;;;;4882339;28;93913;-72
2023/04/27 14:00:38;;;;;;;1.13;0.20;;;21.40;50.50;;;;;;4875299;28;93898;-72
2023/04/27 14:03:04;;;;;;;0.88;0.13;;;21.20;50.00;;;;;;4883531;28;92563;-72
2023/04/27 14:05:30;;;;;;;1.30;0.47;;;20.90;49.80;;;;;;4881123;28;92171;-72
2023/04/27 14:07:56;;;;;;;1.25;0.28;;;20.90;50.60;;;;;;4876676;28;93289;-70
2023/04/27 14:10:22;;;;;;;1.02;0.10;;;21.10;50.60;;;;;;4884497;28;92950;-70
2023/04/27 14:12:48;;;;;;;2.13;0.30;;;21.20;48.90;;;;;;4884843;28;94053;-70
2023/04/27 14:15:14;;;;;;;1.15;0.13;;;21.20;49.90;;;;;;4877759;28;91812;-70
2023/04/27 14:17:40;;;;;;;0.88;0.10;;;21.00;49.90;;;;;;4879674;28;94505;-70
2023/04/27 14:20:06;;;;;;;1.35;0.30;;;21.10;50.80;;;;;;4880073;28;93669;-70
2023/04/27 14:22:32;;;;;;;2.50;0.75;;;21.00;49.10;;;;;;4879386;28;93445;-70
2023/04/27 14:24:59;;;;;;;1.40;0.30;;;21.00;48.30;;;;;;4874813;28;92436;-70
2023/04/27 14:27:25;;;;;;;3.08;0.30;;;21.00;49.10;;;;;;4884266;28;92676;-70
2023/04/27 14:29:50;;;;;;;1.60;0.20;;;21.10;49.50;;;;;;4878277;28;93096;-70
2023/04/27 14:32:16;;;;;;;0.88;0.20;;;21.10;50.20;;;;;;4879306;28;92365;-71
2023/04/27 14:34:42;;;;;;;2.10;0.40;;;21.10;49.50;;;;;;4880500;28;92149;-70
2023/04/27 14:37:08;;;;;;;2.45;0.30;;;21.10;50.20;;;;;;4879963;28;93167;-70
2023/04/27 14:39:34;;;;;;;1.17;0.20;;;21.10;50.00;;;;;;4880260;28;92435;-70
2023/04/27 14:42:01;;;;;;;2.00;0.20;;;21.10;49.20;;;;;;4876748;28;92982;-70
2023/04/27 14:44:27;;;;;;;0.82;0.13;;;21.00;49.50;;;;;;4880717;28;92116;-70
2023/04/27 14:46:52;;;;;;;2.35;0.30;;;21.00;48.20;;;;;;4879341;28;93952;-70
2023/04/27 14:49:18;;;;;;;1.42;0.35;;;20.90;50.30;;;;;;4880222;28;93753;-70
2023/04/27 14:51:44;;;;;;;2.05;0.22;;;20.80;50.30;;;;;;4879121;28;92659;-70
2023/04/27 14:54:10;;;;;;;0.93;0.43;;;20.70;49.40;;;;;;4880505;28;92395;-70
2023/04/27 14:56:35;;;;;;;1.27;0.20;;;20.70;50.00;;;;;;4879104;28;92718;-70
2023/04/27 14:59:01;;;;;;;1.30;0.60;;;20.80;50.10;;;;;;4872959;28;92783;-69
2023/04/27 15:01:27;;;;;;;0.70;0.20;;;20.80;48.80;;;;;;4875780;28;92498;-70
2023/04/27 15:03:55;;;;;;;1.05;0.30;;;20.60;51.50;;;;;;4880625;28;92008;-70
2023/04/27 15:06:21;;;;;;;3.05;0.30;;;20.60;50.40;;;;;;4878666;28;92785;-70
2023/04/27 15:08:47;;;;;;;1.05;0.20;;;20.50;50.10;;;;;;4877011;28;93557;-70
2023/04/27 15:11:13;;;;;;;1.83;0.30;;;20.40;49.40;;;;;;4890717;28;93631;-70
2023/04/27 15:13:39;;;;;;;3.40;0.50;;;20.30;50.40;;;;;;4879705;28;92810;-70
2023/04/27 15:16:06;;;;;;;3.65;0.32;;;20.30;50.80;;;;;;4875236;28;92780;-69
2023/04/27 15:18:31;;;;;;;1.65;0.40;;;20.20;51.30;;;;;;4879297;28;93208;-69
2023/04/27 15:20:58;;;;;;;1.27;0.40;;;20.10;52.20;;;;;;4874089;28;92185;-70
2023/04/27 15:23:25;;;;;;;1.20;0.30;;;20.10;53.20;;;;;;4879581;28;92679;-70
2023/04/27 15:25:54;;;;;;;1.27;0.30;;;20.10;52.90;;;;;;4878360;28;93677;-72
2023/04/27 15:28:20;;;;;;;0.95;0.20;;;20.00;51.50;;;;;;4879051;28;93184;-70
2023/04/27 15:30:46;;;;;;;3.25;0.30;;;20.00;51.50;;;;;;4864483;28;92483;-70
2023/04/27 15:33:13;;;;;;;1.40;0.20;;;19.90;52.90;;;;;;4870597;28;92636;-70
2023/04/27 15:35:39;;;;;;;2.50;0.30;;;19.80;51.80;;;;;;4876270;28;93691;-70
2023/04/27 15:38:07;;;;;;;1.17;0.47;;;19.80;52.60;;;;;;4878729;28;93791;-70
2023/04/27 15:40:33;;;;;;;2.55;0.30;;;19.70;52.40;;;;;;4879427;28;92492;-70
2023/04/27 15:42:59;;;;;;;1.42;0.22;;;19.60;52.60;;;;;;4879441;28;92577;-70
2023/04/27 15:45:26;;;;;;;3.17;0.38;;;19.50;52.90;;;;;;4878422;28;93196;-70
2023/04/27 15:47:51;;;;;;;1.48;0.40;;;19.50;53.20;;;;;;4872605;28;93137;-70